createdAt,value
2022-12-04T00:01:53.204Z,24.20
2022-12-04T00:04:21.225Z,25.88
2022-12-04T00:06:51.697Z,25.85
2022-12-04T00:09:23.491Z,25.42
2022-12-04T00:11:52.825Z,24.83
2022-12-04T00:14:22.000Z,22.63
2022-12-04T00:16:50.520Z,26.10
2022-12-04T00:19:18.662Z,25.17
2022-12-04T00:21:46.655Z,24.98
2022-12-04T00:24:14.691Z,24.02
2022-12-04T00:26:42.740Z,25.40
2022-12-04T00:29:12.160Z,24.88
2022-12-04T00:31:41.413Z,25.20
2022-12-04T00:34:09.468Z,24.15
2022-12-04T00:36:37.524Z,25.10
2022-12-04T00:39:06.677Z,24.20
2022-12-04T00:41:35.116Z,24.95
2022-12-04T00:44:04.079Z,24.92
2022-12-04T00:46:33.447Z,25.27
2022-12-04T00:49:02.715Z,23.63
2022-12-04T00:51:31.031Z,24.77
2022-12-04T00:53:59.116Z,22.08
2022-12-04T00:56:29.295Z,23.42
2022-12-04T00:58:59.184Z,22.10
2022-12-04T01:01:28.283Z,24.77
2022-12-04T01:03:58.085Z,25.70
2022-12-04T01:06:28.563Z,24.00
2022-12-04T01:08:58.014Z,24.35
2022-12-04T01:11:27.753Z,23.50
2022-12-04T01:13:55.979Z,24.33
2022-12-04T01:16:27.229Z,24.58
2022-12-04T01:18:55.493Z,22.85
2022-12-04T01:21:25.146Z,22.45
2022-12-04T01:23:53.451Z,21.52
2022-12-04T01:26:21.851Z,23.90
2022-12-04T01:28:50.109Z,24.05
2022-12-04T01:31:20.020Z,23.33
2022-12-04T01:33:48.671Z,23.88
2022-12-04T01:36:19.432Z,23.70
2022-12-04T01:38:48.973Z,21.85
2022-12-04T01:41:20.493Z,22.17
2022-12-04T01:44:10.051Z,22.10
2022-12-04T01:46:38.075Z,23.15
2022-12-04T01:49:08.421Z,23.02
2022-12-04T01:51:40.633Z,22.60
2022-12-04T01:54:12.794Z,23.65
2022-12-04T01:56:43.483Z,23.65
2022-12-04T01:59:16.305Z,22.30
2022-12-04T02:01:50.622Z,21.90
2022-12-04T02:04:18.910Z,23.17
2022-12-04T02:06:47.038Z,21.17
2022-12-04T02:09:19.380Z,20.95
2022-12-04T02:11:57.988Z,21.30
2022-12-04T02:14:32.972Z,22.95
2022-12-04T02:17:12.633Z,22.02
2022-12-04T02:20:14.568Z,21.35
2022-12-04T02:23:08.542Z,21.30
2022-12-04T02:25:44.690Z,19.98
2022-12-04T02:28:24.612Z,20.10
2022-12-04T02:30:55.615Z,19.98
2022-12-04T02:33:27.149Z,21.17
2022-12-04T02:36:02.263Z,19.23
2022-12-04T02:38:36.676Z,19.15
2022-12-04T02:41:12.009Z,19.55
2022-12-04T02:43:45.808Z,19.58
2022-12-04T02:46:18.611Z,20.35
2022-12-04T02:48:50.359Z,20.65
2022-12-04T02:51:21.921Z,20.27
2022-12-04T02:53:54.503Z,19.92
2022-12-04T02:56:26.957Z,19.20
2022-12-04T02:58:59.463Z,18.67
2022-12-04T03:01:32.794Z,18.27
2022-12-04T03:04:06.875Z,20.52
2022-12-04T03:06:40.124Z,20.00
2022-12-04T03:09:13.647Z,18.73
2022-12-04T03:11:47.282Z,19.20
2022-12-04T03:14:21.191Z,20.80
2022-12-04T03:16:53.553Z,21.60
2022-12-04T03:19:26.378Z,17.70
2022-12-04T03:21:59.083Z,20.33
2022-12-04T03:24:30.273Z,18.77
2022-12-04T03:27:04.172Z,19.25
2022-12-04T03:29:39.057Z,20.88
2022-12-04T03:32:11.978Z,20.05
2022-12-04T03:34:46.849Z,18.77
2022-12-04T03:37:18.204Z,18.33
2022-12-04T03:39:53.900Z,19.73
2022-12-04T03:42:26.560Z,19.58
2022-12-04T03:45:02.203Z,18.85
2022-12-04T03:47:35.971Z,19.05
2022-12-04T03:50:13.567Z,19.73
2022-12-04T03:52:49.441Z,19.00
2022-12-04T03:55:24.483Z,20.65
2022-12-04T03:57:57.543Z,18.52
2022-12-04T04:00:26.985Z,19.67
2022-12-04T04:03:00.717Z,20.08
2022-12-04T04:05:31.409Z,18.48
2022-12-04T04:08:17.699Z,18.80
2022-12-04T04:10:46.635Z,18.17
2022-12-04T04:13:36.528Z,18.33
2022-12-04T04:16:25.439Z,20.48
2022-12-04T04:19:13.432Z,19.20
2022-12-04T04:22:01.460Z,19.20
2022-12-04T04:24:37.210Z,19.50
2022-12-04T04:27:06.030Z,18.80
2022-12-04T04:29:34.395Z,18.90
2022-12-04T04:32:12.425Z,19.58
2022-12-04T04:34:49.266Z,19.20
2022-12-04T04:37:26.731Z,21.25
2022-12-04T04:40:01.258Z,19.55
2022-12-04T04:42:32.864Z,20.48
2022-12-04T04:45:07.090Z,20.85
2022-12-04T04:47:41.209Z,20.08
2022-12-04T04:50:12.243Z,20.40
2022-12-04T04:52:45.084Z,20.00
2022-12-04T04:55:14.538Z,20.15
2022-12-04T04:57:42.559Z,20.75
2022-12-04T05:00:15.196Z,19.33
2022-12-04T05:02:45.294Z,19.38
2022-12-04T05:05:14.442Z,21.67
2022-12-04T05:07:42.635Z,19.20
2022-12-04T05:10:11.933Z,21.70
2022-12-04T05:12:39.898Z,21.13
2022-12-04T05:15:08.982Z,20.70
2022-12-04T05:17:37.338Z,20.50
2022-12-04T05:20:07.412Z,20.50
2022-12-04T05:22:37.451Z,21.85
2022-12-04T05:25:06.196Z,19.52
2022-12-04T05:27:34.790Z,22.02
2022-12-04T05:30:02.945Z,22.77
2022-12-04T05:32:31.324Z,21.40
2022-12-04T05:35:00.067Z,22.45
2022-12-04T05:37:29.449Z,21.27
2022-12-04T05:39:57.774Z,22.58
2022-12-04T05:42:25.971Z,20.52
2022-12-04T05:44:53.956Z,22.02
2022-12-04T05:47:21.955Z,20.65
2022-12-04T05:49:49.933Z,22.83
2022-12-04T05:52:17.988Z,22.98
2022-12-04T05:54:47.307Z,20.83
2022-12-04T05:57:15.305Z,22.90
2022-12-04T05:59:43.272Z,22.13
2022-12-04T06:02:11.322Z,21.20
2022-12-04T06:04:39.476Z,22.30
2022-12-04T06:07:07.426Z,24.27
2022-12-04T06:09:35.403Z,22.60
2022-12-04T06:12:05.633Z,23.52
2022-12-04T06:14:39.145Z,23.80
2022-12-04T06:17:07.648Z,21.95
2022-12-04T06:19:35.823Z,22.85
2022-12-04T06:22:03.867Z,22.60
2022-12-04T06:24:32.002Z,22.38
2022-12-04T06:29:50.486Z,22.02
2022-12-04T06:32:21.844Z,21.80
2022-12-04T06:34:52.650Z,22.33
2022-12-04T06:37:22.041Z,22.25
2022-12-04T06:39:50.130Z,23.30
2022-12-04T06:42:18.360Z,21.33
2022-12-04T06:44:46.469Z,20.40
2022-12-04T06:47:15.758Z,21.45
2022-12-04T06:49:43.769Z,23.80
2022-12-04T06:52:11.826Z,21.60
2022-12-04T06:54:39.786Z,22.55
2022-12-04T06:57:07.721Z,21.40
2022-12-04T06:59:35.683Z,21.40
2022-12-04T07:02:03.671Z,22.30
2022-12-04T07:04:33.029Z,22.02
2022-12-04T07:07:01.093Z,21.27
2022-12-04T07:09:29.084Z,23.05
2022-12-04T07:11:57.053Z,22.42
2022-12-04T07:14:25.036Z,22.00
2022-12-04T07:16:53.025Z,22.45
2022-12-04T07:19:21.015Z,21.13
2022-12-04T07:21:50.385Z,21.77
2022-12-04T07:24:18.867Z,22.25
2022-12-04T07:26:47.556Z,21.10
2022-12-04T07:29:15.559Z,19.95
2022-12-04T07:31:44.411Z,21.23
2022-12-04T07:34:12.581Z,20.50
2022-12-04T07:36:41.163Z,22.20
2022-12-04T07:39:10.469Z,21.13
2022-12-04T07:41:38.479Z,22.60
2022-12-04T07:44:06.624Z,24.35
2022-12-04T07:46:34.686Z,23.10
2022-12-04T07:49:02.725Z,23.08
2022-12-04T07:51:31.143Z,22.88
2022-12-04T07:54:03.139Z,22.35
2022-12-04T07:56:34.533Z,22.27
2022-12-04T07:59:03.306Z,21.98
2022-12-04T08:01:31.670Z,22.90
2022-12-04T08:04:01.382Z,20.77
2022-12-04T08:06:30.609Z,21.33
2022-12-04T08:08:58.563Z,21.17
2022-12-04T08:11:28.715Z,19.90
2022-12-04T08:13:59.086Z,20.55
2022-12-04T08:16:27.925Z,21.10
2022-12-04T08:18:56.374Z,20.50
2022-12-04T08:21:27.118Z,21.85
2022-12-04T08:23:56.813Z,21.27
2022-12-04T08:26:26.703Z,20.70
2022-12-04T08:28:55.461Z,23.00
2022-12-04T08:31:26.594Z,22.30
2022-12-04T08:33:56.896Z,21.55
2022-12-04T08:36:25.611Z,21.83
2022-12-04T08:38:54.281Z,21.20
2022-12-04T08:41:24.582Z,20.63
2022-12-04T08:43:54.589Z,22.50
2022-12-04T08:46:25.752Z,21.80
2022-12-04T08:48:54.321Z,26.15
2022-12-04T08:51:24.793Z,21.67
2022-12-04T08:53:56.376Z,21.95
2022-12-04T08:56:25.058Z,21.45
2022-12-04T08:58:53.125Z,23.02
2022-12-04T09:01:21.165Z,21.52
2022-12-04T09:03:50.489Z,22.40
2022-12-04T09:06:18.926Z,20.45
2022-12-04T09:08:46.985Z,23.75
2022-12-04T09:11:16.639Z,28.92
2022-12-04T09:13:46.117Z,22.80
2022-12-04T09:16:16.164Z,21.88
2022-12-04T09:18:44.583Z,21.63
2022-12-04T09:21:16.227Z,22.42
2022-12-04T09:23:44.492Z,21.00
2022-12-04T09:26:19.581Z,20.25
2022-12-04T09:28:47.520Z,21.65
2022-12-04T09:31:15.762Z,20.58
2022-12-04T09:33:43.910Z,19.35
2022-12-04T09:36:16.109Z,20.25
2022-12-04T09:38:45.406Z,20.83
2022-12-04T09:41:39.356Z,19.55
2022-12-04T09:44:10.468Z,19.30
2022-12-04T09:46:41.187Z,20.50
2022-12-04T09:49:17.445Z,20.55
2022-12-04T09:51:47.758Z,20.60
2022-12-04T09:54:18.173Z,18.13
2022-12-04T09:56:54.471Z,19.13
2022-12-04T09:59:24.590Z,19.85
2022-12-04T10:01:59.724Z,19.77
2022-12-04T10:04:27.745Z,20.00
2022-12-04T10:07:06.073Z,20.50
2022-12-04T10:09:43.566Z,20.55
2022-12-04T10:12:21.590Z,19.38
2022-12-04T10:15:08.582Z,20.48
2022-12-04T10:17:52.047Z,20.83
2022-12-04T10:20:36.418Z,21.40
2022-12-04T10:23:14.247Z,20.25
2022-12-04T10:25:43.724Z,19.90
2022-12-04T10:28:21.788Z,21.13
2022-12-04T10:30:52.210Z,19.67
2022-12-04T10:33:27.900Z,19.48
2022-12-04T10:35:56.445Z,19.75
2022-12-04T10:38:35.404Z,21.65
2022-12-04T10:41:14.662Z,20.13
2022-12-04T10:43:45.509Z,18.50
2022-12-04T10:46:16.315Z,20.10
2022-12-04T10:48:47.424Z,19.60
2022-12-04T10:51:17.056Z,20.13
2022-12-04T10:53:49.296Z,19.55
2022-12-04T10:56:19.851Z,21.33
2022-12-04T10:58:58.009Z,20.73
2022-12-04T11:01:26.497Z,19.88
2022-12-04T11:04:01.249Z,20.70
2022-12-04T11:06:30.615Z,20.75
2022-12-04T11:09:00.946Z,21.13
2022-12-04T11:11:31.934Z,20.88
2022-12-04T11:14:08.195Z,19.30
2022-12-04T11:16:39.595Z,19.67
2022-12-04T11:19:23.911Z,19.55
2022-12-04T11:21:52.812Z,18.80
2022-12-04T11:24:24.606Z,20.35
2022-12-04T11:26:53.614Z,20.67
2022-12-04T11:29:26.762Z,19.85
2022-12-04T11:31:58.653Z,19.55
2022-12-04T11:34:35.806Z,21.77
2022-12-04T11:37:04.425Z,21.00
2022-12-04T11:39:37.515Z,21.02
2022-12-04T11:42:07.576Z,20.52
2022-12-04T11:44:37.222Z,19.90
2022-12-04T11:47:07.021Z,21.50
2022-12-04T11:49:37.386Z,20.60
2022-12-04T11:52:21.901Z,20.73
2022-12-04T11:55:01.473Z,21.55
2022-12-04T11:57:38.249Z,22.45
2022-12-04T12:00:14.808Z,28.05
2022-12-04T12:03:04.215Z,27.60
2022-12-04T12:05:53.772Z,22.98
2022-12-04T12:08:33.663Z,21.30
2022-12-04T12:11:12.464Z,23.77
2022-12-04T12:13:50.037Z,24.13
2022-12-04T12:16:28.611Z,22.45
2022-12-04T12:19:11.785Z,23.75
2022-12-04T12:21:49.720Z,24.17
2022-12-04T12:24:26.612Z,20.80
2022-12-04T12:27:13.591Z,22.77
2022-12-04T12:29:56.893Z,22.00
2022-12-04T12:32:45.285Z,21.55
2022-12-04T12:35:22.472Z,23.55
2022-12-04T12:37:54.077Z,22.63
2022-12-04T12:40:31.497Z,21.48
2022-12-04T12:43:05.920Z,21.30
2022-12-04T12:45:41.863Z,22.48
2022-12-04T12:48:17.227Z,21.33
2022-12-04T12:51:08.886Z,20.80
2022-12-04T12:53:41.830Z,22.17
2022-12-04T12:56:13.285Z,20.42
2022-12-04T12:58:46.985Z,21.60
2022-12-04T13:01:20.248Z,20.13
2022-12-04T13:03:55.932Z,20.52
2022-12-04T13:06:30.181Z,20.33
2022-12-04T13:09:06.359Z,20.73
2022-12-04T13:11:35.084Z,18.75
2022-12-04T13:14:05.645Z,22.27
2022-12-04T13:16:39.102Z,21.90
2022-12-04T13:19:14.003Z,19.30
2022-12-04T13:21:47.836Z,19.08
2022-12-04T13:24:54.178Z,17.83
2022-12-04T13:27:33.397Z,17.85
2022-12-04T13:30:11.751Z,19.38
2022-12-04T13:33:03.947Z,17.42
2022-12-04T13:35:49.812Z,17.55
2022-12-04T13:38:29.342Z,18.63
2022-12-04T13:40:59.552Z,17.67
2022-12-04T13:43:33.211Z,16.85
2022-12-04T13:46:06.007Z,18.80
2022-12-04T13:48:37.805Z,18.00
2022-12-04T13:51:10.950Z,17.67
2022-12-04T13:53:40.382Z,17.92
2022-12-04T13:56:24.167Z,17.27
2022-12-04T13:59:00.962Z,18.50
2022-12-04T14:01:38.417Z,17.38
2022-12-04T14:04:07.493Z,17.00
2022-12-04T14:06:39.528Z,18.00
2022-12-04T14:09:19.350Z,13.50
2022-12-04T14:11:52.584Z,17.92
2022-12-04T14:14:27.613Z,17.10
2022-12-04T14:16:59.842Z,18.48
2022-12-04T14:19:32.384Z,17.98
2022-12-04T14:22:00.990Z,18.98
2022-12-04T14:24:36.082Z,19.02
2022-12-04T14:27:25.756Z,18.30
2022-12-04T14:29:57.879Z,18.95
2022-12-04T14:32:31.768Z,17.73
2022-12-04T14:35:00.392Z,21.90
2022-12-04T14:37:31.818Z,20.48
2022-12-04T14:40:01.207Z,20.60
2022-12-04T14:42:37.531Z,17.73
2022-12-04T14:45:18.316Z,16.88
2022-12-04T14:48:07.264Z,18.55
2022-12-04T14:50:43.384Z,16.80
2022-12-04T14:53:22.059Z,17.00
2022-12-04T14:56:03.444Z,15.98
2022-12-04T14:58:35.512Z,15.93
2022-12-04T15:01:07.196Z,14.73
2022-12-04T15:03:42.493Z,15.80
2022-12-04T15:06:19.535Z,17.58
2022-12-04T15:08:51.030Z,15.18
2022-12-04T15:11:38.257Z,14.60
2022-12-04T15:14:11.961Z,15.65
2022-12-04T15:16:40.076Z,15.15
2022-12-04T15:19:18.984Z,17.20
2022-12-04T15:21:46.987Z,19.70
2022-12-04T15:24:20.182Z,18.33
2022-12-04T15:26:49.604Z,18.50
2022-12-04T15:29:21.181Z,17.90
2022-12-04T15:31:56.552Z,18.15
2022-12-04T15:34:28.853Z,14.85
2022-12-04T15:37:03.167Z,16.85
2022-12-04T15:39:34.609Z,16.20
2022-12-04T15:42:06.939Z,14.77
2022-12-04T15:44:36.446Z,14.88
2022-12-04T15:47:17.868Z,16.13
2022-12-04T15:49:47.221Z,15.48
2022-12-04T15:52:17.883Z,17.02
2022-12-04T15:54:51.504Z,16.90
2022-12-04T15:57:26.455Z,16.33
2022-12-04T15:59:55.371Z,15.30
2022-12-04T16:02:26.996Z,16.70
2022-12-04T16:04:56.572Z,16.65
2022-12-04T16:07:26.435Z,17.55
2022-12-04T16:10:02.800Z,19.15
2022-12-04T16:12:32.812Z,19.60
2022-12-04T16:15:00.805Z,18.70
2022-12-04T16:17:33.680Z,16.40
2022-12-04T16:20:06.468Z,15.75
2022-12-04T16:22:34.888Z,16.15
2022-12-04T16:25:02.889Z,17.55
2022-12-04T16:27:30.907Z,17.35
2022-12-04T16:29:58.984Z,15.95
2022-12-04T16:32:31.127Z,16.23
2022-12-04T16:34:59.495Z,15.80
2022-12-04T16:37:30.002Z,16.70
2022-12-04T16:39:58.339Z,16.77
2022-12-04T16:42:28.318Z,16.75
2022-12-04T16:44:56.940Z,16.90
2022-12-04T16:47:25.254Z,16.67
2022-12-04T16:49:53.793Z,16.42
2022-12-04T16:52:22.233Z,17.70
2022-12-04T16:54:51.753Z,18.05
2022-12-04T16:57:19.746Z,18.70
2022-12-04T16:59:47.743Z,18.05
2022-12-04T17:02:19.047Z,18.55
2022-12-04T17:04:47.160Z,17.65
2022-12-04T17:07:15.183Z,19.20
2022-12-04T17:09:43.195Z,17.95
2022-12-04T17:12:12.576Z,23.08
2022-12-04T17:15:00.551Z,19.67
2022-12-04T17:17:28.587Z,21.10
2022-12-04T17:19:56.604Z,19.95
2022-12-04T17:22:26.457Z,17.98
2022-12-04T17:24:56.311Z,20.73
2022-12-04T17:27:25.857Z,20.75
2022-12-04T17:29:53.894Z,20.75
2022-12-04T17:32:21.905Z,20.17
2022-12-04T17:34:50.031Z,20.58
2022-12-04T17:37:18.042Z,19.58
2022-12-04T17:39:46.057Z,18.00
2022-12-04T17:42:16.548Z,21.55
2022-12-04T17:44:56.167Z,19.70
2022-12-04T17:47:24.669Z,19.85
2022-12-04T17:49:52.672Z,21.13
2022-12-04T17:52:22.499Z,19.55
2022-12-04T17:54:50.855Z,20.25
2022-12-04T17:57:19.341Z,19.08
2022-12-04T17:59:47.371Z,20.20
2022-12-04T18:02:17.149Z,18.45
2022-12-04T18:04:45.292Z,18.45
2022-12-04T18:07:13.294Z,17.65
2022-12-04T18:09:41.279Z,19.95
2022-12-04T18:12:09.249Z,19.30
2022-12-04T18:14:49.012Z,19.67
2022-12-04T18:17:20.603Z,18.83
2022-12-04T18:19:48.658Z,20.05
2022-12-04T18:22:16.682Z,19.45
2022-12-04T18:24:44.696Z,20.33
2022-12-04T18:27:12.626Z,20.90
2022-12-04T18:29:40.603Z,17.98
2022-12-04T18:32:08.776Z,16.52
2022-12-04T18:34:38.172Z,19.52
2022-12-04T18:37:06.120Z,18.85
2022-12-04T18:39:34.080Z,16.40
2022-12-04T18:42:02.060Z,18.20
2022-12-04T18:44:30.152Z,17.67
2022-12-04T18:46:58.140Z,21.05
2022-12-04T18:49:26.139Z,21.05
2022-12-04T18:51:55.450Z,21.17
2022-12-04T18:54:25.249Z,19.88
2022-12-04T18:56:53.727Z,17.60
2022-12-04T18:59:23.177Z,16.27
2022-12-04T19:01:51.971Z,15.77
2022-12-04T19:04:22.059Z,16.80
2022-12-04T19:06:52.113Z,16.15
2022-12-04T19:09:40.987Z,15.13
2022-12-04T19:12:12.182Z,15.98
2022-12-04T19:14:53.807Z,17.00
2022-12-04T19:17:22.514Z,16.48
2022-12-04T19:19:50.516Z,14.93
2022-12-04T19:22:18.539Z,16.92
2022-12-04T19:24:47.923Z,15.88
2022-12-04T19:27:15.919Z,15.13
2022-12-04T19:29:44.724Z,17.20
2022-12-04T19:32:12.906Z,16.83
2022-12-04T19:34:41.054Z,17.80
2022-12-04T19:37:09.038Z,16.23
2022-12-04T19:39:37.386Z,16.23
2022-12-04T19:42:07.424Z,18.40
2022-12-04T19:44:51.857Z,16.65
2022-12-04T19:47:20.252Z,16.20
2022-12-04T19:49:48.676Z,15.30
2022-12-04T19:52:17.105Z,16.80
2022-12-04T19:54:45.456Z,15.90
2022-12-04T19:57:14.934Z,15.20
2022-12-04T19:59:46.483Z,14.65
2022-12-04T20:02:15.492Z,15.32
2022-12-04T20:04:44.161Z,14.25
2022-12-04T20:07:12.298Z,15.90
2022-12-04T20:09:40.431Z,16.08
2022-12-04T20:12:08.842Z,16.17
2022-12-04T20:14:38.163Z,15.43
2022-12-04T20:17:06.313Z,14.95
2022-12-04T20:19:34.315Z,15.68
2022-12-04T20:22:02.305Z,16.55
2022-12-04T20:24:30.267Z,19.75
2022-12-04T20:26:58.212Z,20.45
2022-12-04T20:29:26.259Z,18.42
2022-12-04T20:31:55.577Z,15.80
2022-12-04T20:34:23.753Z,15.82
2022-12-04T20:36:51.740Z,17.60
2022-12-04T20:39:21.093Z,15.52
2022-12-04T20:41:49.341Z,16.20
2022-12-04T20:44:19.700Z,16.08
2022-12-04T20:46:48.391Z,15.15
2022-12-04T20:49:22.080Z,14.98
2022-12-04T20:51:51.701Z,14.20
2022-12-04T20:54:21.993Z,15.52
2022-12-04T20:56:52.884Z,14.75
2022-12-04T20:59:22.819Z,15.88
2022-12-04T21:01:52.194Z,14.88
2022-12-04T21:04:22.326Z,15.52
2022-12-04T21:06:50.688Z,17.15
2022-12-04T21:09:21.697Z,17.05
2022-12-04T21:11:51.984Z,17.20
2022-12-04T21:14:39.704Z,21.52
2022-12-04T21:17:09.773Z,23.27
2022-12-04T21:19:39.116Z,16.00
2022-12-04T21:22:07.382Z,12.90
2022-12-04T21:24:38.690Z,12.23
2022-12-04T21:27:07.875Z,13.52
2022-12-04T21:29:36.252Z,14.00
2022-12-04T21:32:04.653Z,13.00
2022-12-04T21:34:32.709Z,13.77
2022-12-04T21:37:02.236Z,13.35
2022-12-04T21:39:30.399Z,12.57
2022-12-04T21:42:15.949Z,12.88
2022-12-04T21:44:43.940Z,11.32
2022-12-04T21:47:11.985Z,11.20
2022-12-04T21:49:39.979Z,12.13
2022-12-04T21:52:09.284Z,12.18
2022-12-04T21:54:37.297Z,12.95
2022-12-04T21:57:05.269Z,11.55
2022-12-04T21:59:33.309Z,12.48
2022-12-04T22:02:01.399Z,13.15
2022-12-04T22:04:29.459Z,12.38
2022-12-04T22:06:57.386Z,14.32
2022-12-04T22:09:27.078Z,14.73
2022-12-04T22:11:55.118Z,15.05
2022-12-04T22:14:23.069Z,16.65
2022-12-04T22:16:51.855Z,14.60
2022-12-04T22:19:20.095Z,12.73
2022-12-04T22:21:48.370Z,13.98
2022-12-04T22:24:16.426Z,12.70
2022-12-04T22:26:45.772Z,14.02
2022-12-04T22:29:42.047Z,12.43
2022-12-04T22:32:01.634Z,13.70
2022-12-04T22:34:29.676Z,13.02
2022-12-04T22:36:57.619Z,13.90
2022-12-04T22:39:25.692Z,13.93
2022-12-04T22:41:54.997Z,14.65
2022-12-04T22:44:23.157Z,14.63
2022-12-04T22:46:51.215Z,18.20
2022-12-04T22:49:19.321Z,14.75
2022-12-04T22:51:47.268Z,16.27
2022-12-04T22:54:15.997Z,13.98
2022-12-04T22:56:44.531Z,15.00
2022-12-04T22:59:13.840Z,13.38
2022-12-04T23:01:41.899Z,14.18
2022-12-04T23:04:10.813Z,14.13
2022-12-04T23:06:38.846Z,14.02
2022-12-04T23:09:09.526Z,13.80
2022-12-04T23:11:38.114Z,12.93
2022-12-04T23:14:09.515Z,13.57
2022-12-04T23:16:39.823Z,13.77
2022-12-04T23:19:09.481Z,12.52
2022-12-04T23:21:37.467Z,14.25
2022-12-04T23:24:05.909Z,12.43
2022-12-04T23:26:36.271Z,12.27
2022-12-04T23:29:17.869Z,11.80
2022-12-04T23:31:52.992Z,11.95
2022-12-04T23:34:21.022Z,11.48
2022-12-04T23:36:49.002Z,11.95
2022-12-04T23:39:16.965Z,12.50
2022-12-04T23:41:44.909Z,10.75
2022-12-04T23:44:12.930Z,10.80
2022-12-04T23:46:40.952Z,9.60
2022-12-04T23:49:10.428Z,9.93
2022-12-04T23:51:38.451Z,11.23
2022-12-04T23:54:06.515Z,10.95
2022-12-04T23:56:34.548Z,11.57
2022-12-04T23:59:02.530Z,11.32
